createdAt,value
2018-05-14T00:02:03.287Z,95292.91
2018-05-14T00:04:30.846Z,95288.20
2018-05-14T00:06:58.348Z,95294.99
2018-05-14T00:09:25.960Z,95289.02
2018-05-14T00:11:53.523Z,95285.32
2018-05-14T00:14:21.054Z,95284.31
2018-05-14T00:16:48.660Z,95285.20
2018-05-14T00:19:16.269Z,95284.17
2018-05-14T00:21:43.887Z,95286.95
2018-05-14T00:24:11.392Z,95290.65
2018-05-14T00:26:38.893Z,95286.70
2018-05-14T00:29:06.401Z,95290.17
2018-05-14T00:31:33.920Z,95291.53
2018-05-14T00:34:01.448Z,95285.66
2018-05-14T00:36:28.970Z,95286.66
2018-05-14T00:38:56.469Z,95290.83
2018-05-14T00:41:24.057Z,95285.42
2018-05-14T00:43:51.671Z,95288.41
2018-05-14T00:49:10.191Z,95276.62
2018-05-14T00:51:37.804Z,95291.05
2018-05-14T00:54:05.310Z,95282.94
2018-05-14T00:56:32.859Z,95285.41
2018-05-14T00:59:00.360Z,95281.69
2018-05-14T01:01:27.881Z,95281.56
2018-05-14T01:06:29.197Z,95286.31
2018-05-14T01:08:56.717Z,95285.13
2018-05-14T01:11:24.292Z,95287.65
2018-05-14T01:16:25.532Z,95287.09
2018-05-14T01:18:53.053Z,95285.18
2018-05-14T01:21:20.738Z,95285.05
2018-05-14T01:23:48.307Z,95287.05
2018-05-14T01:26:15.825Z,95288.70
2018-05-14T01:28:43.434Z,95291.05
2018-05-14T01:31:11.027Z,95295.25
2018-05-14T01:33:38.615Z,95292.73
2018-05-14T01:36:06.209Z,95290.55
2018-05-14T01:38:33.815Z,95292.41
2018-05-14T01:43:51.560Z,95291.22
2018-05-14T01:46:19.220Z,95292.06
2018-05-14T01:48:46.721Z,95289.63
2018-05-14T01:51:14.232Z,95292.95
2018-05-14T01:53:41.732Z,95291.06
2018-05-14T01:56:09.258Z,95285.06
2018-05-14T01:58:36.814Z,95293.20
2018-05-14T02:01:04.412Z,95284.84
2018-05-14T02:03:32.095Z,95287.20
2018-05-14T02:05:59.688Z,95279.47
2018-05-14T02:08:27.274Z,95285.92
2018-05-14T02:10:54.877Z,95283.57
2018-05-14T02:13:22.442Z,95287.67
2018-05-14T02:15:50.055Z,95292.13
2018-05-14T02:18:17.824Z,95288.94
2018-05-14T02:20:45.427Z,95292.13
2018-05-14T02:23:13.039Z,95295.12
2018-05-14T02:25:40.617Z,95294.50
2018-05-14T02:28:08.277Z,95292.69
2018-05-14T02:30:35.828Z,95298.41
2018-05-14T02:33:03.444Z,95292.48
2018-05-14T02:35:31.053Z,95293.72
2018-05-14T02:37:58.622Z,95304.10
2018-05-14T02:40:26.177Z,95294.25
2018-05-14T02:42:53.703Z,95302.41
2018-05-14T02:45:21.648Z,95301.44
2018-05-14T02:47:49.641Z,95299.78
2018-05-14T02:50:17.663Z,95305.88
2018-05-14T02:52:45.250Z,95304.07
2018-05-14T02:55:12.982Z,95306.33
2018-05-14T02:57:40.591Z,95306.33
2018-05-14T03:00:08.119Z,95307.19
2018-05-14T03:02:35.693Z,95304.63
2018-05-14T03:05:03.248Z,95304.38
2018-05-14T03:07:31.336Z,95307.86
2018-05-14T03:09:58.920Z,95307.38
2018-05-14T03:15:00.193Z,95309.22
2018-05-14T03:17:27.740Z,95310.14
2018-05-14T03:19:55.268Z,95305.52
2018-05-14T03:22:22.790Z,95303.78
2018-05-14T03:24:50.295Z,95309.03
2018-05-14T03:27:17.834Z,95305.80
2018-05-14T03:29:45.370Z,95308.84
2018-05-14T03:32:12.937Z,95306.36
2018-05-14T03:34:40.469Z,95307.36
2018-05-14T03:37:08.088Z,95307.63
2018-05-14T03:39:35.688Z,95303.37
2018-05-14T03:42:03.264Z,95304.22
2018-05-14T03:44:30.951Z,95306.22
2018-05-14T03:46:58.532Z,95303.89
2018-05-14T03:49:26.143Z,95303.11
2018-05-14T03:51:53.745Z,95302.74
2018-05-14T03:54:21.397Z,95300.05
2018-05-14T03:56:49.017Z,95304.74
2018-05-14T03:59:28.512Z,95300.82
2018-05-14T04:05:08.921Z,95302.03
2018-05-14T04:10:10.453Z,95299.38
2018-05-14T04:12:38.018Z,95304.55
2018-05-14T04:15:05.619Z,95300.86
2018-05-14T04:17:33.269Z,95303.48
2018-05-14T04:20:00.836Z,95299.78
2018-05-14T04:22:28.486Z,95294.59
2018-05-14T04:24:56.075Z,95294.97
2018-05-14T04:27:23.664Z,95298.48
2018-05-14T04:29:51.241Z,95293.61
2018-05-14T04:32:18.860Z,95298.59
2018-05-14T04:34:46.405Z,95307.70
2018-05-14T04:37:13.979Z,95308.22
2018-05-14T04:39:41.669Z,95307.70
2018-05-14T04:42:09.220Z,95312.03
2018-05-14T04:44:36.755Z,95312.97
2018-05-14T04:47:04.459Z,95311.85
2018-05-14T04:49:32.107Z,95318.28
2018-05-14T04:51:59.716Z,95319.91
2018-05-14T04:54:27.454Z,95319.27
2018-05-14T04:56:55.028Z,95330.21
2018-05-14T04:59:22.651Z,95332.45
2018-05-14T05:01:50.337Z,95328.89
2018-05-14T05:04:20.792Z,95333.74
2018-05-14T05:06:48.393Z,95333.88
2018-05-14T05:09:16.022Z,95338.44
2018-05-14T05:11:43.690Z,95338.55
2018-05-14T05:14:11.299Z,95340.98
2018-05-14T05:16:38.942Z,95338.86
2018-05-14T05:19:06.490Z,95342.73
2018-05-14T05:21:34.027Z,95347.34
2018-05-14T05:24:01.619Z,95335.41
2018-05-14T05:26:29.134Z,95343.15
2018-05-14T05:28:56.686Z,95346.89
2018-05-14T05:31:24.320Z,95346.58
2018-05-14T05:33:51.889Z,95350.28
2018-05-14T05:36:19.409Z,95352.41
2018-05-14T05:38:46.925Z,95357.42
2018-05-14T05:41:14.502Z,95352.86
2018-05-14T05:43:42.046Z,95361.88
2018-05-14T05:46:09.614Z,95351.10
2018-05-14T05:48:37.187Z,95353.88
2018-05-14T05:51:04.699Z,95360.23
2018-05-14T05:53:33.314Z,95358.58
2018-05-14T05:56:00.845Z,95361.20
2018-05-14T05:58:28.376Z,95359.53
2018-05-14T06:00:56.071Z,95368.23
2018-05-14T06:03:23.686Z,95364.73
2018-05-14T06:05:51.245Z,95362.76
2018-05-14T06:10:52.726Z,95376.41
2018-05-14T06:13:20.241Z,95377.92
2018-05-14T06:15:47.883Z,95363.48
2018-05-14T06:18:15.451Z,95377.63
2018-05-14T06:20:43.050Z,95384.55
2018-05-14T06:23:10.778Z,95388.13
2018-05-14T06:25:38.350Z,95391.28
2018-05-14T06:28:05.864Z,95393.00
2018-05-14T06:30:33.388Z,95398.66
2018-05-14T06:35:34.621Z,95406.50
2018-05-14T06:38:02.185Z,95408.23
2018-05-14T06:40:29.778Z,95408.90
2018-05-14T06:42:57.377Z,95408.91
2018-05-14T06:45:24.972Z,95409.37
2018-05-14T06:47:52.783Z,95406.70
2018-05-14T06:50:20.383Z,95408.43
2018-05-14T06:52:47.893Z,95405.17
2018-05-14T06:55:15.519Z,95403.10
2018-05-14T06:57:43.020Z,95405.92
2018-05-14T07:00:10.621Z,95412.12
2018-05-14T07:02:38.220Z,95411.98
2018-05-14T07:05:05.801Z,95408.53
2018-05-14T07:07:33.456Z,95408.54
2018-05-14T07:10:01.071Z,95407.31
2018-05-14T07:12:28.627Z,95406.11
2018-05-14T07:14:56.248Z,95402.41
2018-05-14T07:17:23.887Z,95411.67
2018-05-14T07:19:51.449Z,95422.30
2018-05-14T07:22:19.022Z,95418.64
2018-05-14T07:24:46.636Z,95423.22
2018-05-14T07:27:14.230Z,95420.69
2018-05-14T07:29:43.368Z,95423.34
2018-05-14T07:32:10.978Z,95425.28
2018-05-14T07:34:38.503Z,95423.88
2018-05-14T07:37:06.028Z,95423.06
2018-05-14T07:39:33.547Z,95428.33
2018-05-14T07:42:01.124Z,95427.27
2018-05-14T07:44:28.709Z,95437.77
2018-05-14T07:46:56.300Z,95433.77
2018-05-14T07:49:23.869Z,95435.05
2018-05-14T07:51:51.402Z,95445.23
2018-05-14T07:54:18.999Z,95449.95
2018-05-14T07:56:46.852Z,95449.77
2018-05-14T07:59:14.466Z,95452.55
2018-05-14T08:01:42.055Z,95446.81
2018-05-14T08:04:09.639Z,95445.95
2018-05-14T08:06:37.165Z,95449.63
2018-05-14T08:09:04.705Z,95446.00
2018-05-14T08:11:32.252Z,95444.38
2018-05-14T08:13:59.759Z,95447.67
2018-05-14T08:16:27.295Z,95441.26
2018-05-14T08:18:54.893Z,95437.88
2018-05-14T08:21:22.605Z,95437.05
2018-05-14T08:23:50.474Z,95433.53
2018-05-14T08:26:18.282Z,95443.27
2018-05-14T08:28:45.971Z,95448.84
2018-05-14T08:31:13.576Z,95449.80
2018-05-14T08:33:41.302Z,95438.30
2018-05-14T08:36:08.887Z,95436.58
2018-05-14T08:38:36.543Z,95434.98
2018-05-14T08:41:04.150Z,95437.52
2018-05-14T08:43:31.755Z,95433.14
2018-05-14T08:45:59.430Z,95430.97
2018-05-14T08:48:27.039Z,95438.21
2018-05-14T08:50:54.702Z,95439.20
2018-05-14T08:53:22.411Z,95434.08
2018-05-14T08:55:50.055Z,95432.02
2018-05-14T08:58:18.146Z,95437.03
2018-05-14T09:00:45.815Z,95432.80
2018-05-14T09:03:13.306Z,95430.36
2018-05-14T09:05:40.852Z,95431.88
2018-05-14T09:08:08.426Z,95430.04
2018-05-14T09:10:36.026Z,95433.47
2018-05-14T09:13:03.661Z,95429.22
2018-05-14T09:15:31.206Z,95433.64
2018-05-14T09:17:58.795Z,95423.72
2018-05-14T09:20:26.395Z,95422.17
2018-05-14T09:22:54.066Z,95427.80
2018-05-14T09:25:22.006Z,95423.80
2018-05-14T09:27:50.463Z,95425.66
2018-05-14T09:30:18.068Z,95424.75
2018-05-14T09:32:46.581Z,95431.16
2018-05-14T09:35:14.347Z,95425.09
2018-05-14T09:37:42.036Z,95428.60
2018-05-14T09:42:43.927Z,95427.00
2018-05-14T09:45:11.721Z,95429.03
2018-05-14T09:47:39.330Z,95428.14
2018-05-14T09:50:07.034Z,95430.85
2018-05-14T09:52:34.687Z,95429.16
2018-05-14T09:55:02.315Z,95437.34
2018-05-14T09:57:29.940Z,95432.02
2018-05-14T09:59:57.583Z,95437.28
2018-05-14T10:02:25.233Z,95434.57
2018-05-14T10:04:52.952Z,95447.87
2018-05-14T10:07:20.967Z,95441.95
2018-05-14T10:09:50.739Z,95444.30
2018-05-14T10:12:18.268Z,95443.23
2018-05-14T10:14:45.838Z,95444.13
2018-05-14T10:17:13.362Z,95446.13
2018-05-14T10:19:41.152Z,95449.48
2018-05-14T10:22:08.878Z,95451.81
2018-05-14T10:24:36.482Z,95455.53
2018-05-14T10:27:03.954Z,95450.65
2018-05-14T10:29:31.491Z,95448.37
2018-05-14T10:31:59.140Z,95448.79
2018-05-14T10:34:26.637Z,95458.00
2018-05-14T10:36:54.213Z,95451.04
2018-05-14T10:39:21.839Z,95454.85
2018-05-14T10:41:49.456Z,95451.94
2018-05-14T10:44:17.067Z,95446.28
2018-05-14T10:46:44.668Z,95455.27
2018-05-14T10:49:12.526Z,95450.70
2018-05-14T10:51:40.041Z,95448.62
2018-05-14T10:54:07.582Z,95441.92
2018-05-14T10:56:35.150Z,95451.05
2018-05-14T10:59:02.828Z,95439.45
2018-05-14T11:01:30.540Z,95448.97
2018-05-14T11:03:58.647Z,95454.20
2018-05-14T11:06:28.405Z,95448.09
2018-05-14T11:08:55.975Z,95439.39
2018-05-14T11:11:23.606Z,95436.28
2018-05-14T11:13:51.248Z,95439.09
2018-05-14T11:16:18.881Z,95442.37
2018-05-14T11:18:46.484Z,95446.17
2018-05-14T11:21:14.302Z,95450.23
2018-05-14T11:23:42.070Z,95456.22
2018-05-14T11:26:09.620Z,95444.83
2018-05-14T11:28:37.248Z,95452.33
2018-05-14T11:31:04.800Z,95450.28
2018-05-14T11:33:32.705Z,95451.98
2018-05-14T11:36:00.341Z,95456.06
2018-05-14T11:38:27.984Z,95455.49
2018-05-14T11:40:55.571Z,95451.34
2018-05-14T11:43:23.180Z,95454.08
2018-05-14T11:45:50.791Z,95451.66
2018-05-14T11:48:18.405Z,95453.38
2018-05-14T11:50:47.092Z,95462.73
2018-05-14T11:53:14.828Z,95452.07
2018-05-14T11:55:42.348Z,95451.08
2018-05-14T11:58:09.872Z,95456.47
2018-05-14T12:00:37.408Z,95458.86
2018-05-14T12:03:05.063Z,95464.80
2018-05-14T12:05:32.929Z,95454.02
2018-05-14T12:08:00.427Z,95456.92
2018-05-14T12:10:27.981Z,95468.28
2018-05-14T12:12:55.498Z,95457.82
2018-05-14T12:15:23.033Z,95465.41
2018-05-14T12:17:50.585Z,95462.95
2018-05-14T12:20:18.248Z,95461.92
2018-05-14T12:22:45.767Z,95466.30
2018-05-14T12:25:13.801Z,95471.03
2018-05-14T12:27:41.515Z,95462.59
2018-05-14T12:30:09.300Z,95459.55
2018-05-14T12:32:36.863Z,95459.47
2018-05-14T12:37:38.451Z,95453.61
2018-05-14T12:40:06.195Z,95468.80
2018-05-14T12:42:34.786Z,95465.77
2018-05-14T12:45:03.576Z,95466.34
2018-05-14T12:47:32.612Z,95462.65
2018-05-14T12:50:01.178Z,95468.34
2018-05-14T12:52:28.813Z,95465.46
2018-05-14T12:54:56.623Z,95463.69
2018-05-14T12:59:58.131Z,95465.06
2018-05-14T13:02:25.659Z,95467.92
2018-05-14T13:04:53.194Z,95466.55
2018-05-14T13:07:20.746Z,95462.62
2018-05-14T13:09:49.335Z,95467.50
2018-05-14T13:12:16.932Z,95481.21
2018-05-14T13:14:44.778Z,95457.78
2018-05-14T13:17:14.095Z,95460.59
2018-05-14T13:19:41.766Z,95458.75
2018-05-14T13:22:09.852Z,95462.05
2018-05-14T13:24:37.475Z,95461.13
2018-05-14T13:27:11.020Z,95452.80
2018-05-14T13:29:38.695Z,95451.37
2018-05-14T13:32:06.398Z,95453.95
2018-05-14T13:34:34.870Z,95452.34
2018-05-14T13:37:02.537Z,95446.20
2018-05-14T13:39:30.229Z,95439.72
2018-05-14T13:41:58.518Z,95446.61
2018-05-14T13:44:27.996Z,95442.94
2018-05-14T13:46:56.350Z,95440.78
2018-05-14T13:49:24.039Z,95438.55
2018-05-14T13:51:51.708Z,95439.16
2018-05-14T13:54:19.373Z,95434.63
2018-05-14T13:56:46.960Z,95431.89
2018-05-14T13:59:14.468Z,95428.13
2018-05-14T14:01:42.001Z,95433.06
2018-05-14T14:04:11.786Z,95443.46
2018-05-14T14:06:43.548Z,95439.63
2018-05-14T14:09:15.336Z,95438.54
2018-05-14T14:11:43.070Z,95438.38
2018-05-14T14:14:11.777Z,95441.56
2018-05-14T14:16:39.305Z,95428.84
2018-05-14T14:19:07.660Z,95435.53
2018-05-14T14:21:35.266Z,95436.43
2018-05-14T14:24:03.130Z,95431.30
2018-05-14T14:26:30.469Z,95436.82
2018-05-14T14:28:58.030Z,95436.63
2018-05-14T14:31:26.052Z,95425.73
2018-05-14T14:33:54.179Z,95430.85
2018-05-14T14:36:22.049Z,95427.40
2018-05-14T14:38:49.641Z,95435.98
2018-05-14T14:41:17.172Z,95431.11
2018-05-14T14:43:45.832Z,95434.95
2018-05-14T14:46:13.381Z,95433.22
2018-05-14T14:48:41.136Z,95433.90
2018-05-14T14:51:09.123Z,95432.97
2018-05-14T14:53:36.692Z,95436.94
2018-05-14T14:56:04.282Z,95440.07
2018-05-14T14:58:31.867Z,95435.18
2018-05-14T15:01:00.522Z,95427.73
2018-05-14T15:03:28.219Z,95426.64
2018-05-14T15:05:55.898Z,95429.05
2018-05-14T15:08:23.534Z,95426.88
2018-05-14T15:10:51.042Z,95424.25
2018-05-14T15:13:18.755Z,95422.16
2018-05-14T15:15:46.354Z,95418.61
2018-05-14T15:18:14.055Z,95427.85
2018-05-14T15:20:41.871Z,95426.69
2018-05-14T15:23:10.092Z,95421.39
2018-05-14T15:25:37.838Z,95425.05
2018-05-14T15:28:05.471Z,95423.81
2018-05-14T15:30:33.242Z,95418.97
2018-05-14T15:33:01.045Z,95417.33
2018-05-14T15:35:30.630Z,95422.77
2018-05-14T15:37:58.541Z,95422.08
2018-05-14T15:40:26.186Z,95419.00
2018-05-14T15:42:53.762Z,95418.04
2018-05-14T15:45:21.472Z,95423.62
2018-05-14T15:47:49.170Z,95420.31
2018-05-14T15:50:16.862Z,95419.38
2018-05-14T15:52:45.226Z,95415.41
2018-05-14T15:55:13.224Z,95420.45
2018-05-14T16:00:14.690Z,95419.53
2018-05-14T16:02:42.332Z,95416.66
2018-05-14T16:05:10.171Z,95417.50
2018-05-14T16:07:38.638Z,95420.69
2018-05-14T16:10:06.299Z,95415.11
2018-05-14T16:12:34.403Z,95414.61
2018-05-14T16:15:02.089Z,95413.30
2018-05-14T16:17:29.692Z,95416.53
2018-05-14T16:19:57.361Z,95414.42
2018-05-14T16:22:25.085Z,95414.83
2018-05-14T16:24:52.791Z,95411.69
2018-05-14T16:27:20.539Z,95401.88
2018-05-14T16:29:48.201Z,95406.77
2018-05-14T16:32:15.837Z,95405.16
2018-05-14T16:34:43.573Z,95410.09
2018-05-14T16:37:11.575Z,95406.78
2018-05-14T16:39:39.193Z,95404.58
2018-05-14T16:42:06.899Z,95405.27
2018-05-14T16:44:34.605Z,95399.08
2018-05-14T16:47:02.228Z,95402.61
2018-05-14T16:49:29.987Z,95407.12
2018-05-14T16:51:57.706Z,95407.23
2018-05-14T16:54:25.377Z,95405.43
2018-05-14T16:56:53.058Z,95405.33
2018-05-14T16:59:21.527Z,95408.05
2018-05-14T17:01:49.444Z,95399.54
2018-05-14T17:04:17.011Z,95398.42
2018-05-14T17:09:18.333Z,95405.55
2018-05-14T17:11:45.867Z,95407.18
2018-05-14T17:14:13.396Z,95410.06
2018-05-14T17:16:40.967Z,95407.78
2018-05-14T17:19:08.537Z,95415.75
2018-05-14T17:21:36.144Z,95414.13
2018-05-14T17:24:03.652Z,95412.54
2018-05-14T17:26:31.359Z,95407.13
2018-05-14T17:28:58.893Z,95409.23
2018-05-14T17:31:26.467Z,95415.30
2018-05-14T17:33:53.974Z,95410.30
2018-05-14T17:36:21.538Z,95415.30
2018-05-14T17:38:49.169Z,95417.96
2018-05-14T17:41:16.933Z,95421.84
2018-05-14T17:43:44.552Z,95419.25
2018-05-14T17:46:12.178Z,95426.17
2018-05-14T17:48:39.818Z,95427.34
2018-05-14T17:51:07.451Z,95429.36
2018-05-14T17:53:35.053Z,95424.73
2018-05-14T17:56:02.712Z,95423.83
2018-05-14T17:58:30.265Z,95428.13
2018-05-14T18:00:57.867Z,95426.69
2018-05-14T18:03:25.475Z,95423.78
2018-05-14T18:05:53.073Z,95428.59
2018-05-14T18:10:54.781Z,95421.13
2018-05-14T18:13:22.438Z,95422.39
2018-05-14T18:15:50.105Z,95417.11
2018-05-14T18:18:17.731Z,95422.03
2018-05-14T18:20:45.474Z,95423.09
2018-05-14T18:23:18.477Z,95425.36
2018-05-14T18:25:52.376Z,95427.48
2018-05-14T18:28:20.030Z,95430.98
2018-05-14T18:30:47.617Z,95432.14
2018-05-14T18:33:25.240Z,95435.95
2018-05-14T18:35:55.524Z,95429.48
2018-05-14T18:38:23.133Z,95429.41
2018-05-14T18:40:50.714Z,95423.07
2018-05-14T18:43:18.294Z,95425.84
2018-05-14T18:45:46.088Z,95433.45
2018-05-14T18:48:13.688Z,95437.56
2018-05-14T18:50:41.355Z,95443.76
2018-05-14T18:53:09.041Z,95442.77
2018-05-14T18:55:36.638Z,95446.44
2018-05-14T18:58:04.225Z,95442.23
2018-05-14T19:00:31.820Z,95447.81
2018-05-14T19:02:59.393Z,95449.67
2018-05-14T19:05:27.058Z,95453.77
2018-05-14T19:07:54.685Z,95453.34
2018-05-14T19:10:27.908Z,95454.95
2018-05-14T19:12:55.511Z,95460.84
2018-05-14T19:15:28.679Z,95463.43
2018-05-14T19:18:00.202Z,95463.56
2018-05-14T19:20:27.772Z,95459.52
2018-05-14T19:23:01.057Z,95451.43
2018-05-14T19:25:28.663Z,95458.22
2018-05-14T19:28:01.853Z,95457.44
2018-05-14T19:30:29.444Z,95461.22
2018-05-14T19:32:57.055Z,95454.78
2018-05-14T19:35:30.232Z,95467.98
2018-05-14T19:37:57.863Z,95469.17
2018-05-14T19:40:30.813Z,95471.31
2018-05-14T19:42:58.781Z,95477.58
2018-05-14T19:45:26.397Z,95476.89
2018-05-14T19:47:54.004Z,95478.05
2018-05-14T19:50:21.679Z,95477.27
2018-05-14T19:52:49.226Z,95481.22
2018-05-14T19:55:17.029Z,95469.22
2018-05-14T19:57:44.594Z,95479.09
2018-05-14T20:00:12.151Z,95472.75
2018-05-14T20:02:39.770Z,95479.42
2018-05-14T20:05:07.469Z,95478.24
2018-05-14T20:07:34.986Z,95482.91
2018-05-14T20:10:02.493Z,95478.88
2018-05-14T20:12:30.063Z,95480.58
2018-05-14T20:14:57.580Z,95473.98
2018-05-14T20:17:25.202Z,95480.43
2018-05-14T20:19:52.784Z,95471.68
2018-05-14T20:22:20.296Z,95475.47
2018-05-14T20:24:47.833Z,95477.21
2018-05-14T20:27:15.353Z,95468.66
2018-05-14T20:29:42.886Z,95473.73
2018-05-14T20:32:10.414Z,95468.95
2018-05-14T20:34:37.973Z,95467.42
2018-05-14T20:37:05.531Z,95474.39
2018-05-14T20:39:33.046Z,95472.58
2018-05-14T20:42:00.545Z,95471.62
2018-05-14T20:44:28.125Z,95480.44
2018-05-14T20:46:55.624Z,95476.95
2018-05-14T20:49:23.130Z,95472.28
2018-05-14T20:51:50.648Z,95477.22
2018-05-14T20:54:18.225Z,95465.47
2018-05-14T20:56:45.726Z,95469.84
2018-05-14T20:59:13.343Z,95471.46
2018-05-14T21:01:40.950Z,95482.27
2018-05-14T21:04:08.575Z,95465.58
2018-05-14T21:06:36.222Z,95478.92
2018-05-14T21:09:03.938Z,95470.14
2018-05-14T21:11:31.568Z,95475.48
2018-05-14T21:13:59.137Z,95476.38
2018-05-14T21:16:26.699Z,95471.77
2018-05-14T21:18:54.380Z,95470.02
2018-05-14T21:21:21.877Z,95472.98
2018-05-14T21:23:49.425Z,95465.31
2018-05-14T21:26:17.094Z,95465.39
2018-05-14T21:28:44.710Z,95468.97
2018-05-14T21:31:12.301Z,95464.86
2018-05-14T21:33:39.894Z,95469.23
2018-05-14T21:36:07.481Z,95464.98
2018-05-14T21:38:35.075Z,95465.27
2018-05-14T21:41:02.700Z,95465.59
2018-05-14T21:43:30.284Z,95475.30
2018-05-14T21:45:57.883Z,95466.41
2018-05-14T21:48:25.465Z,95464.98
2018-05-14T21:50:53.076Z,95472.19
2018-05-14T21:53:20.685Z,95473.37
2018-05-14T21:55:48.186Z,95473.42
2018-05-14T21:58:15.709Z,95467.98
2018-05-14T22:00:43.261Z,95474.05
2018-05-14T22:03:10.855Z,95471.50
2018-05-14T22:05:50.190Z,95467.39
2018-05-14T22:08:17.823Z,95470.87
2018-05-14T22:10:45.496Z,95471.37
2018-05-14T22:13:13.099Z,95470.45
2018-05-14T22:15:40.773Z,95471.22
2018-05-14T22:18:08.410Z,95471.33
2018-05-14T22:20:35.991Z,95472.87
2018-05-14T22:23:03.573Z,95471.64
2018-05-14T22:25:31.168Z,95469.27
2018-05-14T22:27:58.685Z,95468.25
2018-05-14T22:30:26.183Z,95468.73
2018-05-14T22:32:53.682Z,95461.55
2018-05-14T22:35:21.223Z,95464.02
2018-05-14T22:37:49.505Z,95457.05
2018-05-14T22:40:17.011Z,95463.25
2018-05-14T22:42:44.533Z,95463.98
2018-05-14T22:45:13.518Z,95465.25
2018-05-14T22:47:41.171Z,95465.33
2018-05-14T22:50:08.715Z,95462.33
2018-05-14T22:52:36.265Z,95465.37
2018-05-14T22:55:03.894Z,95467.41
2018-05-14T22:57:31.424Z,95471.61
2018-05-14T22:59:58.949Z,95467.96
2018-05-14T23:02:26.547Z,95458.58
2018-05-14T23:04:54.105Z,95473.33
2018-05-14T23:07:21.694Z,95464.63
2018-05-14T23:09:49.294Z,95463.75
2018-05-14T23:12:16.921Z,95464.27
2018-05-14T23:14:44.472Z,95466.91
2018-05-14T23:17:12.062Z,95459.18
2018-05-14T23:19:39.646Z,95457.84
2018-05-14T23:22:07.200Z,95464.39
2018-05-14T23:24:34.791Z,95462.57
2018-05-14T23:27:02.327Z,95462.02
2018-05-14T23:29:29.852Z,95457.94
2018-05-14T23:31:57.451Z,95459.53
2018-05-14T23:34:25.096Z,95454.79
2018-05-14T23:36:52.721Z,95462.71
2018-05-14T23:39:20.347Z,95455.09
2018-05-14T23:41:47.968Z,95452.30
2018-05-14T23:44:15.598Z,95456.62
2018-05-14T23:46:43.211Z,95454.97
2018-05-14T23:49:11.146Z,95457.43
2018-05-14T23:51:38.765Z,95463.12
2018-05-14T23:54:06.349Z,95458.07
2018-05-14T23:56:33.936Z,95459.88
2018-05-14T23:59:01.530Z,95455.78
